Bronson, Kansas
Current Conditions -  °F | °C
As of 9:52 AM on Friday 28 Nov 2014 (Local Time) from KCNU Reporting Station
Clear Clear  
Wind Chill: 39°   Ceiling: Unl
Heat Index: 47°   Visibility: 10mi
Dew Point: 30°   Wind: 23mph
Humidity: 52%   Direction: 200°SSW
Pressure: 30.02"   Gusts: 30mph
Location:  37.9°N, 95.07°W
Report Text: KCNU 281552Z AUTO 20020G26KT 10SM CLR 08/M01 A3002 RMK AO2 PK WND 20026/1544 SLP171 T00831011
Loading
Personal Weather Stations






























Interactive Weather Map New forecast layout! Learn more

10-Day Weather Forecast

Advertisements
Track Severe Weather on mobile